createdAt,value
2022-11-05T06:15:49.752Z,1006.69
2022-11-05T06:25:49.571Z,1006.78
2022-11-05T06:35:49.576Z,1006.91
2022-11-05T06:45:49.670Z,1006.91
2022-11-05T06:55:49.674Z,1007.05
2022-11-05T07:05:49.742Z,1007.22
2022-11-05T07:15:49.654Z,1007.24
2022-11-05T07:25:49.903Z,1007.17
2022-11-05T07:35:49.717Z,1007.35
2022-11-05T07:45:49.670Z,1007.48
2022-11-05T07:55:49.810Z,1007.61
2022-11-05T08:05:49.938Z,1007.70
2022-11-05T08:15:49.825Z,1007.99
2022-11-05T08:25:49.815Z,1008.19
2022-11-05T08:35:49.767Z,1008.42
2022-11-05T08:45:49.916Z,1008.57
2022-11-05T08:55:50.227Z,1008.90
2022-11-05T09:05:50.177Z,1008.99
2022-11-05T09:15:50.249Z,1009.21
2022-11-05T09:25:50.220Z,1009.36
2022-11-05T09:35:50.307Z,1009.44
2022-11-05T09:45:50.194Z,1009.67
2022-11-05T09:55:50.188Z,1009.74
2022-11-05T10:05:50.210Z,1009.94
2022-11-05T10:15:50.279Z,1009.94
2022-11-05T10:25:50.114Z,1010.00
2022-11-05T10:35:50.181Z,1010.15
2022-11-05T10:45:50.129Z,1010.07
2022-11-05T10:55:50.159Z,1010.10
2022-11-05T11:05:50.356Z,1010.14
2022-11-05T11:15:50.293Z,1009.98
2022-11-05T11:25:50.386Z,1010.15
2022-11-05T11:35:50.332Z,1010.28
2022-11-05T11:45:50.312Z,1010.13
2022-11-05T11:55:50.614Z,1010.18
2022-11-05T12:05:50.329Z,1010.08
2022-11-05T12:15:50.307Z,1009.91
2022-11-05T12:25:50.272Z,1009.81
2022-11-05T12:35:56.421Z,1009.79
2022-11-05T12:45:50.304Z,1009.77
2022-11-05T12:55:50.206Z,1009.78
2022-11-05T13:05:50.295Z,1009.76
2022-11-05T13:15:51.255Z,1009.77
2022-11-05T13:25:50.339Z,1009.79
2022-11-05T13:35:50.345Z,1009.70
2022-11-05T13:45:50.311Z,1009.73
2022-11-05T13:55:50.327Z,1009.77
2022-11-05T14:05:50.255Z,1009.79
2022-11-05T14:15:50.409Z,1009.75
2022-11-05T14:25:50.262Z,1009.68
2022-11-05T14:35:50.313Z,1009.74
2022-11-05T14:45:50.432Z,1009.77
2022-11-05T14:55:50.363Z,1009.92
2022-11-05T15:05:50.450Z,1010.08
2022-11-05T15:15:50.438Z,1010.09
2022-11-05T15:25:53.201Z,1010.12
2022-11-05T15:35:50.378Z,1010.01
2022-11-05T15:45:50.362Z,1010.06
2022-11-05T15:55:50.267Z,1010.16
2022-11-05T16:05:50.592Z,1010.13
2022-11-05T16:15:50.513Z,1010.17
2022-11-05T16:25:50.307Z,1010.05
2022-11-05T16:35:50.534Z,1009.99
2022-11-05T16:45:50.649Z,1010.11
2022-11-05T16:55:50.457Z,1010.11
2022-11-05T17:05:50.418Z,1010.15
2022-11-05T17:15:50.568Z,1010.30
2022-11-05T17:25:50.401Z,1010.33
2022-11-05T17:35:50.467Z,1010.45
2022-11-05T17:45:50.479Z,1010.44
2022-11-05T17:55:50.501Z,1010.54
2022-11-05T18:05:50.405Z,1010.64
2022-11-05T18:15:50.379Z,1010.56
2022-11-05T18:25:50.417Z,1010.51
2022-11-05T18:35:50.525Z,1010.53
2022-11-05T18:45:50.428Z,1010.34
2022-11-05T18:55:50.498Z,1010.28
2022-11-05T19:05:50.732Z,1010.34
2022-11-05T19:15:50.707Z,1010.32
